createdAt,value
2023-03-03T00:02:18.046Z,36.20
2023-03-03T00:04:46.441Z,34.90
2023-03-03T00:07:21.859Z,32.70
2023-03-03T00:09:50.950Z,33.40
2023-03-03T00:12:26.861Z,35.40
2023-03-03T00:14:56.285Z,31.60
2023-03-03T00:17:30.754Z,34.50
2023-03-03T00:19:59.817Z,36.00
2023-03-03T00:22:46.281Z,40.60
2023-03-03T00:25:34.922Z,38.00
2023-03-03T00:28:31.443Z,38.80
2023-03-03T00:31:01.631Z,34.20
2023-03-03T00:33:43.796Z,36.60
2023-03-03T00:36:32.012Z,38.90
2023-03-03T00:39:39.466Z,40.90
2023-03-03T00:42:15.605Z,33.40
2023-03-03T00:44:48.810Z,40.50
2023-03-03T00:47:38.577Z,38.30
2023-03-03T00:50:07.491Z,36.10
2023-03-03T00:52:38.469Z,34.20
2023-03-03T00:55:08.077Z,38.60
2023-03-03T00:57:36.449Z,34.60
2023-03-03T01:00:06.208Z,37.90
2023-03-03T01:02:34.650Z,38.00
2023-03-03T01:05:03.077Z,33.40
2023-03-03T01:07:31.180Z,35.10
2023-03-03T01:09:59.640Z,33.40
2023-03-03T01:12:30.912Z,42.50
2023-03-03T01:14:59.785Z,36.40
2023-03-03T01:17:29.732Z,31.20
2023-03-03T01:19:58.469Z,31.20
2023-03-03T01:22:34.180Z,35.30
2023-03-03T01:25:03.898Z,28.70
2023-03-03T01:27:32.358Z,32.00
2023-03-03T01:30:01.128Z,28.40
2023-03-03T01:32:30.424Z,28.60
2023-03-03T01:34:58.812Z,32.80
2023-03-03T01:37:28.282Z,27.10
2023-03-03T01:39:57.379Z,26.20
2023-03-03T01:42:29.507Z,25.10
2023-03-03T01:45:43.912Z,22.00
2023-03-03T01:48:23.417Z,24.70
2023-03-03T01:51:11.055Z,26.00
2023-03-03T01:53:45.323Z,26.80
2023-03-03T01:56:14.370Z,26.10
2023-03-03T01:58:47.267Z,27.30
2023-03-03T02:01:21.197Z,28.10
2023-03-03T02:03:49.605Z,27.40
2023-03-03T02:06:22.751Z,23.50
2023-03-03T02:09:14.865Z,23.20
2023-03-03T02:11:46.014Z,23.50
2023-03-03T02:14:14.707Z,24.70
2023-03-03T02:16:43.431Z,22.50
2023-03-03T02:19:28.990Z,22.90
2023-03-03T02:21:58.519Z,23.70
2023-03-03T02:24:32.318Z,23.00
2023-03-03T02:27:00.790Z,23.40
2023-03-03T02:29:29.307Z,20.50
2023-03-03T02:31:57.556Z,19.50
2023-03-03T02:34:27.093Z,20.80
2023-03-03T02:36:56.003Z,25.20
2023-03-03T02:39:26.974Z,18.00
2023-03-03T02:41:56.235Z,19.30
2023-03-03T02:44:30.693Z,20.90
2023-03-03T02:46:59.713Z,19.90
2023-03-03T02:49:31.147Z,20.90
2023-03-03T02:52:01.036Z,20.40
2023-03-03T02:54:31.263Z,20.40
2023-03-03T02:57:03.821Z,20.40
2023-03-03T02:59:32.085Z,22.20
2023-03-03T03:02:00.835Z,20.60
2023-03-03T03:04:29.426Z,22.70
2023-03-03T03:06:57.753Z,19.80
2023-03-03T03:09:28.483Z,20.90
2023-03-03T03:11:57.122Z,22.50
2023-03-03T03:14:25.368Z,21.10
2023-03-03T03:16:55.406Z,20.50
2023-03-03T03:19:23.943Z,21.60
2023-03-03T03:21:52.820Z,21.60
2023-03-03T03:24:21.209Z,22.80
2023-03-03T03:26:49.552Z,20.80
2023-03-03T03:29:17.729Z,19.70
2023-03-03T03:31:46.142Z,19.00
2023-03-03T03:34:14.478Z,18.80
2023-03-03T03:36:43.421Z,20.50
2023-03-03T03:39:11.938Z,18.20
2023-03-03T03:41:43.253Z,17.70
2023-03-03T03:44:11.777Z,18.60
2023-03-03T03:46:40.256Z,18.70
2023-03-03T03:49:08.573Z,19.70
2023-03-03T03:51:38.482Z,18.80
2023-03-03T03:54:06.588Z,20.80
2023-03-03T03:56:35.117Z,18.20
2023-03-03T03:59:03.802Z,18.50
2023-03-03T04:01:31.901Z,18.10
2023-03-03T04:04:03.361Z,17.70
2023-03-03T04:06:32.468Z,17.10
2023-03-03T04:09:00.756Z,19.10
2023-03-03T04:11:29.050Z,18.50
2023-03-03T04:13:57.618Z,16.40
2023-03-03T04:16:26.429Z,14.40
2023-03-03T04:18:56.313Z,14.70
2023-03-03T04:21:25.519Z,14.60
2023-03-03T04:27:57.090Z,14.00
2023-03-03T04:34:27.697Z,15.70
2023-03-03T04:36:56.986Z,16.30
2023-03-03T04:39:25.475Z,16.60
2023-03-03T04:41:53.564Z,15.90
2023-03-03T04:44:22.642Z,17.60
2023-03-03T04:46:51.058Z,17.30
2023-03-03T04:49:19.690Z,18.70
2023-03-03T04:51:47.970Z,16.60
2023-03-03T04:54:16.157Z,18.60
2023-03-03T04:56:44.677Z,20.30
2023-03-03T04:59:12.977Z,21.70
2023-03-03T05:01:41.315Z,23.10
2023-03-03T05:04:10.088Z,20.40
2023-03-03T05:06:38.483Z,24.30
2023-03-03T05:09:06.924Z,22.60
2023-03-03T05:11:36.949Z,26.50
2023-03-03T05:14:05.183Z,25.30
2023-03-03T05:16:34.147Z,23.60
2023-03-03T05:19:02.208Z,27.50
2023-03-03T05:21:30.563Z,26.30
2023-03-03T05:23:58.753Z,27.40
2023-03-03T05:26:27.097Z,28.10
2023-03-03T05:28:55.248Z,23.60
2023-03-03T05:31:24.184Z,25.40
2023-03-03T05:33:52.220Z,23.00
2023-03-03T05:36:20.747Z,22.40
2023-03-03T05:38:48.979Z,24.40
2023-03-03T05:41:17.652Z,20.70
2023-03-03T05:43:46.286Z,18.70
2023-03-03T05:46:14.746Z,17.60
2023-03-03T05:48:43.846Z,15.30
2023-03-03T05:51:12.320Z,15.80
2023-03-03T05:53:40.691Z,16.00
2023-03-03T05:56:09.317Z,16.00
2023-03-03T05:58:37.661Z,16.80
2023-03-03T06:01:06.199Z,16.80
2023-03-03T06:03:34.645Z,15.80
2023-03-03T06:06:03.235Z,17.70
2023-03-03T06:08:33.040Z,15.60
2023-03-03T06:11:01.592Z,14.70
2023-03-03T06:13:32.615Z,16.70
2023-03-03T06:16:00.903Z,18.70
2023-03-03T06:18:29.368Z,22.60
2023-03-03T06:20:57.951Z,20.80
2023-03-03T06:23:26.203Z,17.40
2023-03-03T06:25:54.816Z,19.00
2023-03-03T06:28:23.408Z,21.70
2023-03-03T06:30:55.682Z,19.90
2023-03-03T06:33:24.592Z,19.30
2023-03-03T06:35:54.935Z,19.00
2023-03-03T06:38:23.160Z,16.50
2023-03-03T06:40:51.727Z,17.40
2023-03-03T06:43:23.354Z,16.40
2023-03-03T06:45:52.055Z,17.20
2023-03-03T06:48:20.208Z,17.40
2023-03-03T06:50:48.665Z,15.50
2023-03-03T06:53:18.669Z,15.80
2023-03-03T06:55:47.167Z,18.40
2023-03-03T06:58:17.922Z,20.00
2023-03-03T07:00:58.984Z,19.10
2023-03-03T07:03:35.182Z,17.50
2023-03-03T07:06:15.075Z,18.80
2023-03-03T07:08:43.558Z,18.80
2023-03-03T07:11:16.203Z,17.70
2023-03-03T07:13:49.324Z,20.30
2023-03-03T07:16:25.134Z,20.20
2023-03-03T07:19:01.327Z,19.90
2023-03-03T07:21:38.214Z,17.20
2023-03-03T07:24:29.324Z,16.50
2023-03-03T07:27:06.710Z,17.70
2023-03-03T07:29:35.960Z,15.50
2023-03-03T07:32:13.939Z,17.70
2023-03-03T07:34:48.257Z,17.50
2023-03-03T07:37:39.020Z,18.90
2023-03-03T07:40:34.053Z,18.10
2023-03-03T07:43:17.660Z,21.60
2023-03-03T07:45:48.103Z,21.40
2023-03-03T07:48:24.756Z,24.10
2023-03-03T07:50:53.115Z,23.20
2023-03-03T07:53:35.139Z,24.50
2023-03-03T07:56:12.528Z,26.40
2023-03-03T07:58:42.299Z,26.70
2023-03-03T08:01:40.036Z,26.50
2023-03-03T08:04:30.432Z,31.70
2023-03-03T08:07:02.000Z,26.10
2023-03-03T08:09:45.058Z,25.60
2023-03-03T08:12:43.041Z,28.90
2023-03-03T08:15:20.562Z,25.90
2023-03-03T08:17:50.172Z,24.60
2023-03-03T08:20:44.994Z,26.70
2023-03-03T08:23:15.433Z,25.70
2023-03-03T08:25:44.919Z,25.10
2023-03-03T08:28:14.478Z,21.70
2023-03-03T08:30:44.062Z,22.90
2023-03-03T08:33:15.932Z,22.30
2023-03-03T08:35:45.185Z,16.90
2023-03-03T08:38:16.193Z,14.70
2023-03-03T08:40:45.674Z,13.20
2023-03-03T08:43:17.416Z,14.40
2023-03-03T08:45:47.315Z,13.10
2023-03-03T08:48:16.652Z,12.80
2023-03-03T08:50:45.973Z,13.60
2023-03-03T08:53:18.603Z,15.00
2023-03-03T08:55:50.589Z,14.80
2023-03-03T08:58:21.233Z,16.60
2023-03-03T09:00:52.115Z,16.90
2023-03-03T09:03:20.544Z,19.00
2023-03-03T09:05:48.751Z,17.20
2023-03-03T09:08:18.053Z,14.50
2023-03-03T09:10:46.545Z,13.70
2023-03-03T09:13:19.895Z,13.30
2023-03-03T09:15:49.395Z,11.20
2023-03-03T09:18:21.952Z,12.40
2023-03-03T09:20:52.255Z,13.00
2023-03-03T09:23:48.632Z,13.90
2023-03-03T09:26:32.467Z,14.30
2023-03-03T09:29:09.834Z,13.60
2023-03-03T09:31:46.801Z,13.10
2023-03-03T09:34:37.069Z,14.60
2023-03-03T09:37:26.950Z,11.00
2023-03-03T09:40:00.807Z,11.80
2023-03-03T09:42:43.180Z,12.20
2023-03-03T09:45:15.585Z,12.80
2023-03-03T09:48:09.527Z,14.50
2023-03-03T09:50:55.311Z,12.80
2023-03-03T09:54:01.399Z,12.50
2023-03-03T09:56:38.275Z,13.80
2023-03-03T09:59:30.952Z,11.40
2023-03-03T10:02:30.196Z,12.20
2023-03-03T10:05:14.412Z,11.60
2023-03-03T10:07:57.590Z,10.80
2023-03-03T10:10:46.189Z,15.60
2023-03-03T10:13:36.102Z,11.70
2023-03-03T10:16:22.358Z,10.60
2023-03-03T10:19:03.923Z,10.30
2023-03-03T10:21:37.282Z,12.60
2023-03-03T10:24:32.146Z,12.10
2023-03-03T10:27:15.489Z,13.40
2023-03-03T10:30:08.567Z,14.10
2023-03-03T10:33:13.434Z,13.10
2023-03-03T10:36:00.926Z,14.20
2023-03-03T10:38:58.662Z,13.60
2023-03-03T10:41:52.249Z,14.40
2023-03-03T10:44:57.992Z,14.30
2023-03-03T10:47:45.961Z,15.50
2023-03-03T10:51:01.548Z,14.00
2023-03-03T10:54:11.561Z,15.90
2023-03-03T10:56:52.192Z,15.40
2023-03-03T10:59:37.315Z,13.40
2023-03-03T11:02:33.180Z,14.60
2023-03-03T11:05:30.233Z,14.20
2023-03-03T11:08:24.642Z,12.70
2023-03-03T11:11:14.840Z,14.00
2023-03-03T11:14:13.567Z,15.00
2023-03-03T11:17:01.519Z,15.40
2023-03-03T11:20:11.096Z,13.00
2023-03-03T11:23:00.325Z,15.80
2023-03-03T11:25:44.225Z,14.70
2023-03-03T11:28:15.605Z,14.20
2023-03-03T11:30:46.725Z,12.10
2023-03-03T11:33:46.427Z,14.50
2023-03-03T11:36:34.905Z,15.60
2023-03-03T11:39:09.416Z,13.50
2023-03-03T11:41:53.572Z,14.50
2023-03-03T11:44:44.406Z,14.30
2023-03-03T11:47:26.507Z,15.40
2023-03-03T11:50:12.247Z,14.10
2023-03-03T11:53:00.343Z,14.30
2023-03-03T11:55:37.839Z,14.50
2023-03-03T11:58:25.340Z,12.10
2023-03-03T12:01:26.360Z,13.40
2023-03-03T12:04:19.476Z,15.60
2023-03-03T12:07:16.815Z,14.10
2023-03-03T12:10:02.256Z,14.90
2023-03-03T12:12:30.555Z,14.90
2023-03-03T12:15:19.770Z,14.50
2023-03-03T12:18:09.265Z,15.10
2023-03-03T12:20:52.461Z,16.10
2023-03-03T12:23:43.629Z,14.20
2023-03-03T12:26:32.402Z,12.40
2023-03-03T12:29:30.533Z,14.50
2023-03-03T12:32:23.210Z,12.50
2023-03-03T12:34:58.795Z,12.50
2023-03-03T12:37:48.639Z,12.30
2023-03-03T12:40:28.000Z,15.30
2023-03-03T12:43:19.763Z,13.30
2023-03-03T12:46:03.608Z,14.00
2023-03-03T12:48:45.375Z,14.90
2023-03-03T12:51:39.593Z,13.50
2023-03-03T12:54:25.885Z,14.70
2023-03-03T12:57:11.610Z,13.90
2023-03-03T13:00:02.812Z,11.90
2023-03-03T13:02:59.504Z,13.40
2023-03-03T13:05:56.660Z,14.20
2023-03-03T13:08:49.449Z,14.60
2023-03-03T13:11:48.830Z,14.40
2023-03-03T13:14:32.367Z,11.90
2023-03-03T13:17:24.832Z,11.80
2023-03-03T13:20:00.657Z,11.70
2023-03-03T13:22:41.618Z,12.50
2023-03-03T13:25:31.122Z,12.20
2023-03-03T13:28:14.353Z,11.60
2023-03-03T13:30:49.981Z,12.70
2023-03-03T13:33:29.054Z,13.00
2023-03-03T13:36:02.789Z,15.20
2023-03-03T13:38:42.347Z,13.50
2023-03-03T13:41:49.979Z,12.60
2023-03-03T13:44:26.273Z,11.10
2023-03-03T13:47:09.259Z,12.60
2023-03-03T13:50:01.628Z,12.00
2023-03-03T13:52:34.335Z,11.70
2023-03-03T13:55:29.694Z,12.70
2023-03-03T13:58:23.106Z,13.00
2023-03-03T14:01:22.286Z,14.20
2023-03-03T14:04:29.316Z,13.90
2023-03-03T14:07:04.334Z,12.20
2023-03-03T14:09:53.578Z,16.40
2023-03-03T14:12:36.514Z,12.20
2023-03-03T14:15:31.077Z,11.70
2023-03-03T14:18:10.152Z,11.40
2023-03-03T14:20:44.354Z,11.80
2023-03-03T14:23:42.826Z,13.00
2023-03-03T14:26:12.499Z,11.70
2023-03-03T14:28:46.602Z,12.10
2023-03-03T14:31:26.789Z,13.90
2023-03-03T14:34:11.774Z,11.20
2023-03-03T14:36:43.446Z,13.20
2023-03-03T14:39:37.929Z,13.00
2023-03-03T14:42:13.163Z,11.00
2023-03-03T14:44:47.490Z,11.90
2023-03-03T14:47:27.400Z,11.90
2023-03-03T14:50:03.277Z,12.10
2023-03-03T14:52:34.518Z,12.90
2023-03-03T14:55:32.316Z,12.00
2023-03-03T14:58:01.745Z,12.10
2023-03-03T15:00:36.239Z,12.70
2023-03-03T15:03:21.589Z,12.30
2023-03-03T15:05:52.136Z,13.10
2023-03-03T15:08:32.147Z,11.30
2023-03-03T15:11:20.419Z,11.70
2023-03-03T15:13:49.402Z,11.00
2023-03-03T15:16:23.023Z,11.60
2023-03-03T15:19:28.724Z,13.90
2023-03-03T15:22:08.555Z,13.60
2023-03-03T15:24:48.059Z,12.10
2023-03-03T15:27:25.650Z,14.30
2023-03-03T15:30:24.745Z,12.70
2023-03-03T15:33:34.816Z,13.50
2023-03-03T15:36:47.985Z,16.10
2023-03-03T15:39:37.583Z,12.20
2023-03-03T15:42:36.126Z,12.30
2023-03-03T15:45:33.981Z,12.00
2023-03-03T15:48:42.843Z,11.10
2023-03-03T15:52:01.177Z,13.10
2023-03-03T15:54:59.208Z,11.70
2023-03-03T15:58:07.792Z,12.30
2023-03-03T16:00:48.170Z,13.30
2023-03-03T16:03:32.120Z,13.00
2023-03-03T16:06:19.923Z,12.50
2023-03-03T16:09:23.817Z,13.60
2023-03-03T16:12:16.896Z,14.30
2023-03-03T16:14:57.768Z,13.50
2023-03-03T16:17:57.641Z,14.50
2023-03-03T16:20:47.214Z,13.60
2023-03-03T16:23:25.146Z,13.80
2023-03-03T16:26:05.559Z,14.40
2023-03-03T16:28:54.326Z,13.90
2023-03-03T16:31:29.810Z,15.20
2023-03-03T16:34:20.612Z,14.10
2023-03-03T16:37:09.199Z,15.00
2023-03-03T16:39:43.124Z,14.40
2023-03-03T16:42:24.022Z,16.90
2023-03-03T16:45:09.212Z,16.20
2023-03-03T16:47:59.427Z,14.00
2023-03-03T16:50:36.914Z,15.90
2023-03-03T16:53:27.954Z,16.40
2023-03-03T16:56:22.228Z,18.10
2023-03-03T16:59:18.090Z,17.40
2023-03-03T17:02:18.246Z,18.30
2023-03-03T17:04:59.544Z,20.50
2023-03-03T17:07:49.654Z,21.20
2023-03-03T17:10:32.998Z,22.80
2023-03-03T17:13:23.363Z,21.70
2023-03-03T17:16:14.425Z,24.30
2023-03-03T17:19:13.613Z,19.80
2023-03-03T17:21:47.730Z,23.10
2023-03-03T17:24:48.035Z,22.90
2023-03-03T17:27:39.547Z,22.60
2023-03-03T17:30:22.391Z,23.60
2023-03-03T17:33:00.480Z,23.60
2023-03-03T17:35:54.970Z,23.10
2023-03-03T17:38:41.792Z,20.20
2023-03-03T17:41:18.319Z,19.10
2023-03-03T17:44:08.419Z,22.80
2023-03-03T17:46:48.041Z,20.50
2023-03-03T17:49:40.704Z,31.10
2023-03-03T17:52:28.850Z,20.70
2023-03-03T17:55:19.044Z,19.70
2023-03-03T17:58:14.535Z,20.00
2023-03-03T18:00:43.705Z,18.80
2023-03-03T18:03:30.032Z,19.20
2023-03-03T18:06:17.211Z,18.90
2023-03-03T18:09:15.259Z,18.30
2023-03-03T18:11:53.161Z,17.10
2023-03-03T18:14:59.496Z,20.10
2023-03-03T18:17:43.426Z,19.30
2023-03-03T18:20:51.027Z,21.00
2023-03-03T18:23:35.845Z,19.90
2023-03-03T18:26:32.778Z,18.90
2023-03-03T18:29:25.216Z,21.30
2023-03-03T18:31:53.680Z,20.60
2023-03-03T18:34:44.367Z,20.00
2023-03-03T18:37:33.061Z,22.00
2023-03-03T18:40:04.310Z,20.60
2023-03-03T18:42:40.578Z,19.80
2023-03-03T18:45:23.060Z,22.80
2023-03-03T18:48:13.968Z,24.40
2023-03-03T18:50:47.983Z,21.00
2023-03-03T18:53:27.368Z,22.40
2023-03-03T18:56:01.149Z,22.50
2023-03-03T18:58:36.182Z,21.60
2023-03-03T19:01:23.254Z,21.00
2023-03-03T19:03:51.682Z,21.40
2023-03-03T19:06:38.511Z,21.00
2023-03-03T19:09:12.707Z,21.60
2023-03-03T19:11:51.666Z,22.30
2023-03-03T19:14:29.888Z,19.30
2023-03-03T19:17:19.360Z,18.40
2023-03-03T19:20:09.461Z,18.80
2023-03-03T19:23:04.757Z,22.30
2023-03-03T19:25:33.174Z,19.70
2023-03-03T19:28:17.830Z,21.90
2023-03-03T19:31:17.820Z,19.80
2023-03-03T19:33:55.744Z,22.00
2023-03-03T19:36:45.497Z,21.10
2023-03-03T19:39:23.096Z,20.00
2023-03-03T19:41:51.346Z,21.20
2023-03-03T19:44:29.823Z,24.50
2023-03-03T19:47:10.916Z,25.30
2023-03-03T19:49:58.436Z,24.80
2023-03-03T19:53:02.005Z,21.60
2023-03-03T19:56:00.463Z,23.20
2023-03-03T19:58:55.898Z,23.40
2023-03-03T20:01:32.073Z,24.00
2023-03-03T20:04:26.872Z,24.00
2023-03-03T20:07:31.833Z,23.90
2023-03-03T20:10:24.924Z,22.80
2023-03-03T20:13:07.104Z,23.70
2023-03-03T20:15:49.516Z,23.10
2023-03-03T20:18:44.580Z,23.10
2023-03-03T20:21:24.124Z,25.30
2023-03-03T20:24:28.549Z,22.10
2023-03-03T20:27:18.789Z,23.00
2023-03-03T20:30:25.489Z,21.10
2023-03-03T20:33:12.540Z,23.40
2023-03-03T20:35:50.438Z,23.50
2023-03-03T20:38:33.720Z,22.60
2023-03-03T20:41:01.872Z,22.50
2023-03-03T20:43:36.259Z,23.20
2023-03-03T20:46:18.199Z,22.90
2023-03-03T20:48:49.013Z,24.70
2023-03-03T20:51:56.012Z,24.10
2023-03-03T20:54:36.928Z,25.20
2023-03-03T20:57:34.224Z,22.50
2023-03-03T21:00:19.231Z,24.10
2023-03-03T21:02:55.910Z,24.00
2023-03-03T21:05:24.368Z,21.30
2023-03-03T21:08:05.745Z,22.80
2023-03-03T21:10:36.690Z,22.50
2023-03-03T21:13:40.403Z,22.00
2023-03-03T21:16:21.125Z,22.70
2023-03-03T21:19:06.756Z,20.80
2023-03-03T21:21:38.385Z,24.70
2023-03-03T21:24:09.069Z,22.60
2023-03-03T21:26:58.415Z,22.30
2023-03-03T21:29:35.420Z,21.10
2023-03-03T21:32:07.696Z,22.20
2023-03-03T21:34:42.422Z,23.70
2023-03-03T21:37:12.656Z,23.10
2023-03-03T21:39:44.236Z,23.30
2023-03-03T21:42:29.383Z,22.60
2023-03-03T21:44:57.651Z,21.50
2023-03-03T21:47:29.722Z,24.30
2023-03-03T21:49:58.167Z,23.20
2023-03-03T21:52:27.717Z,22.50
2023-03-03T21:54:56.717Z,20.60
2023-03-03T21:57:26.023Z,26.10
2023-03-03T21:59:58.038Z,25.00
2023-03-03T22:02:26.793Z,23.50
2023-03-03T22:04:55.013Z,21.90
2023-03-03T22:07:23.844Z,21.30
2023-03-03T22:09:52.176Z,22.60
2023-03-03T22:12:20.407Z,22.60
2023-03-03T22:14:49.629Z,21.00
2023-03-03T22:17:17.793Z,19.70
2023-03-03T22:19:46.242Z,22.20
2023-03-03T22:22:14.725Z,23.00
2023-03-03T22:24:43.397Z,23.80
2023-03-03T22:27:12.426Z,24.60
2023-03-03T22:29:40.640Z,21.70
2023-03-03T22:32:09.306Z,20.90
2023-03-03T22:34:38.154Z,20.80
2023-03-03T22:37:06.390Z,23.40
2023-03-03T22:39:34.590Z,21.90
2023-03-03T22:42:03.082Z,22.30
2023-03-03T22:44:31.615Z,21.40
2023-03-03T22:47:00.630Z,21.10
2023-03-03T22:49:29.538Z,21.20
2023-03-03T22:51:59.129Z,23.20
2023-03-03T22:54:27.529Z,21.70
2023-03-03T22:56:56.201Z,21.60
2023-03-03T22:59:24.858Z,22.50
2023-03-03T23:01:53.199Z,23.90
2023-03-03T23:04:21.809Z,23.40
2023-03-03T23:06:50.374Z,21.20
2023-03-03T23:09:18.955Z,20.70
2023-03-03T23:11:47.921Z,19.80
2023-03-03T23:14:16.282Z,21.20
2023-03-03T23:16:46.145Z,22.10
2023-03-03T23:19:15.067Z,21.90
2023-03-03T23:21:43.932Z,19.10
2023-03-03T23:24:12.742Z,20.70
2023-03-03T23:26:41.070Z,21.30
2023-03-03T23:29:09.428Z,20.90
2023-03-03T23:31:38.261Z,20.20
2023-03-03T23:34:06.869Z,19.70
2023-03-03T23:36:35.168Z,21.30
2023-03-03T23:39:04.175Z,22.60
2023-03-03T23:41:33.166Z,18.60
2023-03-03T23:44:01.959Z,18.90
2023-03-03T23:46:30.336Z,17.60
2023-03-03T23:49:00.125Z,19.40
2023-03-03T23:51:28.641Z,19.30
2023-03-03T23:53:57.510Z,19.30
2023-03-03T23:56:26.396Z,18.60
2023-03-03T23:58:54.886Z,17.50
